To NAV CANADA Home Page Login to a new session Search on AWWS site Feedback and Comments Disclaimer Vers la page française équivalente Tips FAQ What's new on the site To the Forecasts and Observations / NOTAM section To "File a Flight Plan" website Publications and other links Update of the User's profile FIC Telephone Numbers My Weather Data Folder Route Weather Data Regional Weather Data Local Weather Data To the Forecasts and Observations / NOTAM section
Request Generated 02/13/2016 at 10:38:06 UTC . Weather information available at that time is displayed.

METAR/TAF

QUAQTAQ/QC    

LWIS CYHA 131000Z AUTO 33013KT M18/M21 A2975=
LWIS CYHA 130900Z AUTO 32011KT M18/M21 A2974=
LWIS CYHA 130800Z AUTO 33009KT M19/M21 A2973=

*** REMARK        : Forecast period has ended; this was the last TAF issued
*** REMARQUE : La période de prévision est échue; ceci était le dernier TAF qui a été émis
TAF CYHA 121438Z 1215/1222 35010KT P6SM FEW012 BKN050 TEMPO 1215/1222
5SM -SN BKN012 OVC050
RMK NXT FCST WILL BE ISSUED AT 131445Z=
Your time UTC time
Weather data provided by Environment Canada and NAV CANADA